Time;durP1;ratioP1;P1;durP2;ratioP2;P2;SDS_P1;SDS_P2;PMS_P1;PMS_P2;Temp;Humidity;BMP_temperature;BMP_pressure;BME280_temperature;BME280_humidity;BME280_pressure;Samples;Min_cycle;Max_cycle;Signal;HPM_P1;HPM_P2
2021/04/16 00:00:14;;;;;;;5.20;2.85;;;8.80;90.70;;;;;;1919125;74;21013;-68
2021/04/16 00:02:41;;;;;;;5.78;2.95;;;8.80;90.70;;;;;;1922250;74;21193;-68
2021/04/16 00:05:10;;;;;;;5.95;2.72;;;8.80;91.10;;;;;;1923039;74;21132;-68
2021/04/16 00:07:37;;;;;;;6.72;2.95;;;8.90;90.60;;;;;;1919031;74;21092;-69
2021/04/16 00:10:15;;;;;;;7.03;3.15;;;8.80;90.70;;;;;;1925633;73;21079;-69
2021/04/16 00:12:43;;;;;;;6.30;3.15;;;8.80;90.80;;;;;;1920664;74;21523;-68
2021/04/16 00:15:16;;;;;;;5.72;3.05;;;8.80;91.20;;;;;;1920100;74;21158;-68
2021/04/16 00:17:44;;;;;;;5.92;3.37;;;8.80;91.10;;;;;;1919339;74;21502;-68
2021/04/16 00:20:15;;;;;;;4.37;2.72;;;8.80;91.10;;;;;;1921434;74;21185;-68
2021/04/16 00:22:42;;;;;;;4.72;3.10;;;8.80;91.20;;;;;;1923028;73;21153;-68
2021/04/16 00:25:12;;;;;;;8.63;3.30;;;8.70;91.10;;;;;;1928639;73;21227;-68
2021/04/16 00:27:39;;;;;;;7.97;2.98;;;8.70;90.70;;;;;;1916611;74;21671;-68
2021/04/16 00:30:08;;;;;;;5.95;3.12;;;8.60;90.60;;;;;;1919315;74;21576;-68
2021/04/16 00:32:37;;;;;;;6.25;3.42;;;8.60;90.70;;;;;;1918032;74;21091;-68
2021/04/16 00:35:06;;;;;;;6.65;3.25;;;8.60;90.60;;;;;;1918448;73;21559;-68
2021/04/16 00:37:34;;;;;;;7.65;3.45;;;8.60;90.70;;;;;;1915024;74;21127;-68
2021/04/16 00:40:01;;;;;;;4.78;2.98;;;8.60;90.80;;;;;;1921603;74;21164;-68
2021/04/16 00:42:29;;;;;;;7.17;3.05;;;8.60;91.00;;;;;;1921556;73;21119;-68
2021/04/16 00:44:56;;;;;;;5.62;2.87;;;8.70;91.10;;;;;;1923301;73;21141;-68
2021/04/16 00:47:25;;;;;;;4.22;2.85;;;8.70;91.00;;;;;;1925120;74;21107;-68
2021/04/16 00:49:55;;;;;;;5.42;3.58;;;8.60;90.90;;;;;;1918728;73;21235;-69
2021/04/16 00:52:32;;;;;;;4.12;2.77;;;8.60;91.00;;;;;;1918710;73;21149;-68
2021/04/16 00:55:00;;;;;;;6.20;2.95;;;8.70;91.20;;;;;;1921108;73;21157;-68
2021/04/16 00:57:28;;;;;;;6.05;3.15;;;8.70;90.70;;;;;;1920563;74;21176;-68
2021/04/16 00:59:58;;;;;;;8.65;3.20;;;8.70;91.20;;;;;;1925213;73;21118;-68
2021/04/16 01:02:26;;;;;;;3.62;2.30;;;8.70;91.30;;;;;;1921694;73;21227;-68
2021/04/16 01:04:54;;;;;;;5.70;3.08;;;8.70;91.30;;;;;;1921339;74;21083;-67
2021/04/16 01:07:22;;;;;;;5.87;3.00;;;8.70;91.10;;;;;;1920081;73;21174;-67
2021/04/16 01:09:51;;;;;;;6.65;3.55;;;8.80;91.00;;;;;;1916659;74;21106;-67
2021/04/16 01:12:19;;;;;;;5.17;3.05;;;8.70;90.90;;;;;;1919077;74;21056;-67
2021/04/16 01:14:51;;;;;;;5.10;3.08;;;8.60;91.20;;;;;;1925158;74;21082;-68
2021/04/16 01:17:18;;;;;;;11.25;3.47;;;8.60;91.10;;;;;;1923211;74;21029;-68
2021/04/16 01:19:49;;;;;;;6.60;3.22;;;8.60;91.00;;;;;;1924980;74;21014;-67
2021/04/16 01:22:19;;;;;;;6.55;3.30;;;8.40;90.80;;;;;;1917577;74;21028;-67
2021/04/16 01:24:47;;;;;;;5.30;3.40;;;8.40;90.80;;;;;;1925993;73;21102;-67
2021/04/16 01:27:15;;;;;;;4.20;2.95;;;8.30;91.10;;;;;;1929023;74;21474;-67
2021/04/16 01:29:45;;;;;;;4.20;3.10;;;8.30;91.00;;;;;;1921622;74;21129;-67
2021/04/16 01:32:16;;;;;;;7.95;3.12;;;8.30;91.10;;;;;;1923288;74;21101;-67
2021/04/16 01:34:45;;;;;;;6.67;3.27;;;8.30;91.00;;;;;;1921567;73;21165;-68
2021/04/16 01:37:12;;;;;;;5.97;3.02;;;8.30;90.90;;;;;;1920243;74;21091;-67
2021/04/16 01:39:40;;;;;;;9.63;3.42;;;8.20;91.10;;;;;;1923618;73;21554;-67
2021/04/16 01:42:08;;;;;;;9.23;2.87;;;8.20;91.00;;;;;;1912601;73;21111;-67
2021/04/16 01:44:36;;;;;;;6.15;2.92;;;8.20;91.20;;;;;;1921535;74;21056;-67
2021/04/16 01:47:06;;;;;;;5.90;3.25;;;8.30;91.50;;;;;;1920532;74;21072;-67
2021/04/16 01:49:40;;;;;;;6.72;3.25;;;8.30;91.80;;;;;;1918925;73;21625;-67
2021/04/16 01:52:11;;;;;;;6.83;3.47;;;8.20;91.10;;;;;;1919135;73;21053;-67
2021/04/16 01:54:41;;;;;;;4.42;2.52;;;8.20;91.00;;;;;;1919651;74;21103;-67
2021/04/16 01:57:15;;;;;;;8.03;3.02;;;8.20;91.40;;;;;;1921795;74;21534;-67
2021/04/16 01:59:46;;;;;;;6.05;3.05;;;8.20;91.70;;;;;;1917941;73;21075;-67
2021/04/16 02:02:16;;;;;;;5.53;2.58;;;8.10;91.80;;;;;;1921343;74;21128;-67
2021/04/16 02:04:44;;;;;;;6.53;2.75;;;8.10;91.90;;;;;;1921038;74;21023;-67
2021/04/16 02:07:12;;;;;;;5.53;3.00;;;8.10;91.80;;;;;;1922649;74;21076;-67
2021/04/16 02:09:41;;;;;;;6.00;2.62;;;8.10;91.90;;;;;;1927005;74;21113;-67
2021/04/16 02:12:10;;;;;;;5.62;3.02;;;8.00;92.30;;;;;;1915336;74;21514;-67
2021/04/16 02:14:38;;;;;;;5.37;2.90;;;8.00;92.40;;;;;;1926364;73;21141;-67
2021/04/16 02:17:12;;;;;;;4.78;3.00;;;8.00;92.70;;;;;;1923298;74;21690;-67
2021/04/16 02:19:40;;;;;;;4.80;2.90;;;8.00;92.20;;;;;;1920940;74;21181;-67
2021/04/16 02:22:10;;;;;;;4.42;2.90;;;7.90;91.80;;;;;;1927090;74;21086;-68
2021/04/16 02:24:38;;;;;;;5.78;3.17;;;7.90;92.50;;;;;;1921585;74;21193;-68
2021/04/16 02:27:06;;;;;;;6.00;2.80;;;7.90;92.40;;;;;;1923375;74;21124;-67
2021/04/16 02:29:33;;;;;;;4.05;2.92;;;7.90;93.10;;;;;;1923859;74;21212;-67
2021/04/16 02:32:01;;;;;;;3.80;2.60;;;8.00;93.00;;;;;;1923910;74;21225;-68
2021/04/16 02:34:30;;;;;;;5.30;3.00;;;7.90;93.00;;;;;;1922066;74;21225;-67
2021/04/16 02:37:01;;;;;;;6.03;3.15;;;7.90;93.50;;;;;;1922075;74;21139;-67
2021/04/16 02:39:29;;;;;;;4.28;2.70;;;7.90;93.10;;;;;;1916713;74;21135;-67
2021/04/16 02:41:57;;;;;;;4.50;2.70;;;7.80;93.00;;;;;;1923184;74;21159;-67
2021/04/16 02:44:25;;;;;;;5.70;3.00;;;7.80;93.20;;;;;;1924013;73;21087;-68
2021/04/16 02:46:53;;;;;;;4.03;2.67;;;7.80;92.80;;;;;;1915923;74;21111;-67
2021/04/16 02:49:21;;;;;;;5.92;2.95;;;7.80;93.30;;;;;;1920992;73;21072;-67
2021/04/16 02:51:49;;;;;;;3.95;2.75;;;7.80;93.10;;;;;;1916110;74;21032;-67
2021/04/16 02:54:18;;;;;;;6.37;2.60;;;7.80;93.20;;;;;;1921190;74;21118;-66
2021/04/16 02:56:47;;;;;;;8.25;3.25;;;7.80;93.60;;;;;;1928221;74;21029;-67
2021/04/16 02:59:15;;;;;;;6.90;3.00;;;7.80;93.50;;;;;;1921495;74;21008;-67
2021/04/16 03:01:42;;;;;;;6.78;2.90;;;7.70;92.90;;;;;;1926102;74;21478;-67
2021/04/16 03:04:10;;;;;;;6.10;3.22;;;7.70;92.40;;;;;;1923063;74;21047;-67
2021/04/16 03:06:37;;;;;;;5.90;2.70;;;7.70;92.50;;;;;;1927141;73;21057;-67
2021/04/16 03:09:06;;;;;;;5.55;2.77;;;7.70;92.60;;;;;;1919846;73;21032;-67
2021/04/16 03:11:34;;;;;;;3.75;2.45;;;7.70;92.50;;;;;;1912393;74;21076;-67
2021/04/16 03:14:01;;;;;;;6.83;2.75;;;7.70;92.40;;;;;;1915012;73;21198;-67
2021/04/16 03:16:30;;;;;;;5.15;2.98;;;7.80;92.40;;;;;;1917879;74;21033;-67
2021/04/16 03:19:00;;;;;;;4.03;2.65;;;7.70;92.40;;;;;;1922209;74;21397;-67
2021/04/16 03:21:29;;;;;;;3.33;2.35;;;7.70;92.90;;;;;;1922692;74;21147;-67
2021/04/16 03:23:56;;;;;;;4.22;2.90;;;7.70;92.90;;;;;;1923670;73;21181;-67
2021/04/16 03:26:25;;;;;;;4.50;2.50;;;7.70;92.20;;;;;;1920382;74;21127;-67
2021/04/16 03:28:55;;;;;;;4.67;2.87;;;7.60;92.40;;;;;;1926686;73;22123;-67
2021/04/16 03:31:22;;;;;;;6.40;2.80;;;7.70;92.50;;;;;;1919196;74;21538;-67
2021/04/16 03:33:50;;;;;;;4.97;2.90;;;7.60;92.50;;;;;;1925490;74;21100;-67
2021/04/16 03:36:18;;;;;;;5.78;2.80;;;7.60;92.70;;;;;;1929942;74;21146;-67
2021/04/16 03:38:46;;;;;;;4.17;2.47;;;7.60;92.70;;;;;;1921827;73;21095;-67
2021/04/16 03:41:15;;;;;;;7.78;3.08;;;7.70;92.60;;;;;;1919635;74;21119;-67
2021/04/16 03:43:43;;;;;;;4.70;2.58;;;7.60;92.40;;;;;;1919152;74;21080;-67
2021/04/16 03:46:11;;;;;;;5.05;2.83;;;7.60;93.10;;;;;;1924716;74;21151;-67
2021/04/16 03:48:39;;;;;;;6.10;2.72;;;7.60;92.70;;;;;;1921254;74;21207;-67
2021/04/16 03:51:08;;;;;;;5.60;3.10;;;7.70;92.80;;;;;;1920467;74;21112;-67
2021/04/16 03:53:38;;;;;;;5.72;2.95;;;7.60;93.00;;;;;;1919859;74;21545;-67
2021/04/16 03:56:08;;;;;;;4.92;2.95;;;7.60;93.10;;;;;;1926161;74;21170;-67
2021/04/16 03:58:36;;;;;;;4.78;2.67;;;7.60;93.20;;;;;;1927329;74;21092;-68
2021/04/16 04:01:06;;;;;;;8.90;2.80;;;7.60;93.70;;;;;;1923813;74;21599;-67
2021/04/16 04:03:34;;;;;;;3.83;2.77;;;7.60;93.90;;;;;;1927963;74;21088;-68
2021/04/16 04:06:02;;;;;;;4.95;2.60;;;7.50;93.80;;;;;;1921152;74;21177;-68
2021/04/16 04:08:30;;;;;;;5.03;2.55;;;7.50;93.80;;;;;;1922809;74;21104;-68
2021/04/16 04:10:57;;;;;;;3.65;2.65;;;7.50;93.80;;;;;;1917716;74;21146;-68
2021/04/16 04:13:25;;;;;;;10.70;2.77;;;7.50;93.90;;;;;;1919599;74;21072;-68
2021/04/16 04:15:52;;;;;;;5.67;2.87;;;7.50;93.80;;;;;;1915901;73;21617;-68
2021/04/16 04:18:20;;;;;;;3.92;2.87;;;7.40;93.70;;;;;;1920416;73;21084;-68
2021/04/16 04:20:47;;;;;;;4.00;2.98;;;7.40;93.80;;;;;;1924534;74;21188;-68
2021/04/16 04:23:15;;;;;;;6.12;3.08;;;7.40;94.10;;;;;;1921742;73;21073;-68
2021/04/16 04:25:42;;;;;;;4.70;2.98;;;7.40;94.00;;;;;;1921643;73;21111;-68
2021/04/16 04:28:10;;;;;;;6.33;2.67;;;7.40;93.40;;;;;;1917335;74;22014;-67
2021/04/16 04:30:38;;;;;;;5.22;2.87;;;7.40;93.80;;;;;;1921506;74;21153;-68
2021/04/16 04:33:07;;;;;;;4.53;2.85;;;7.30;94.80;;;;;;1918440;74;21083;-68
2021/04/16 04:35:35;;;;;;;7.10;3.30;;;7.30;94.70;;;;;;1915422;74;21149;-68
2021/04/16 04:38:05;;;;;;;6.12;3.00;;;7.30;95.20;;;;;;1924661;74;21604;-67
2021/04/16 04:40:33;;;;;;;4.78;2.85;;;7.30;95.20;;;;;;1914814;74;21044;-68
2021/04/16 04:43:01;;;;;;;5.03;2.90;;;7.30;95.00;;;;;;1915593;74;21100;-68
2021/04/16 04:45:28;;;;;;;7.80;2.83;;;7.20;94.80;;;;;;1917497;74;21057;-68
2021/04/16 04:47:56;;;;;;;11.12;2.77;;;7.30;95.60;;;;;;1922223;74;21080;-68
2021/04/16 04:50:25;;;;;;;4.55;2.60;;;7.30;95.40;;;;;;1920161;73;21092;-68
2021/04/16 04:52:54;;;;;;;5.40;2.65;;;7.30;94.90;;;;;;1916639;73;22198;-67
2021/04/16 04:55:28;;;;;;;5.15;2.90;;;7.30;95.60;;;;;;1917335;74;21119;-66
2021/04/16 04:57:57;;;;;;;6.55;3.15;;;7.40;94.90;;;;;;1920093;73;21631;-67
2021/04/16 05:00:26;;;;;;;5.47;3.05;;;7.40;95.40;;;;;;1918434;74;21112;-67
2021/04/16 05:02:54;;;;;;;4.58;2.65;;;7.50;94.80;;;;;;1916509;73;21577;-67
2021/04/16 05:05:23;;;;;;;5.72;3.08;;;7.50;95.50;;;;;;1922747;74;21239;-67
2021/04/16 05:07:51;;;;;;;4.47;3.00;;;7.60;95.80;;;;;;1919734;74;21443;-67
2021/04/16 05:10:19;;;;;;;5.33;3.15;;;7.60;95.30;;;;;;1922202;74;21159;-67
2021/04/16 05:12:47;;;;;;;3.87;2.80;;;7.60;95.00;;;;;;1919025;73;21077;-66
2021/04/16 05:15:16;;;;;;;4.95;2.70;;;7.60;95.30;;;;;;1923762;74;21495;-66
2021/04/16 05:17:43;;;;;;;8.83;3.10;;;7.60;94.50;;;;;;1928428;74;21154;-66
2021/04/16 05:20:12;;;;;;;4.37;2.70;;;7.70;94.90;;;;;;1921420;74;21645;-65
2021/04/16 05:22:40;;;;;;;4.95;3.00;;;7.70;93.70;;;;;;1926543;74;21157;-66
2021/04/16 05:25:08;;;;;;;4.87;2.80;;;7.80;94.10;;;;;;1916751;74;21088;-66
2021/04/16 05:27:36;;;;;;;5.65;2.75;;;7.80;94.00;;;;;;1926388;74;21065;-66
2021/04/16 05:30:05;;;;;;;4.85;2.80;;;7.80;94.50;;;;;;1918623;74;21123;-72
2021/04/16 05:32:33;;;;;;;8.28;3.33;;;7.70;94.50;;;;;;1922186;73;21434;-73
2021/04/16 05:35:00;;;;;;;5.62;3.17;;;7.70;94.20;;;;;;1921684;74;22057;-66
2021/04/16 05:37:27;;;;;;;3.62;2.45;;;7.80;93.70;;;;;;1920329;74;21079;-72
2021/04/16 05:39:55;;;;;;;5.75;3.05;;;7.90;94.20;;;;;;1923302;74;21153;-72
2021/04/16 05:42:23;;;;;;;7.00;3.12;;;7.90;94.30;;;;;;1921532;74;21087;-72
2021/04/16 05:44:50;;;;;;;4.35;2.90;;;8.00;93.80;;;;;;1912316;73;21064;-74
2021/04/16 05:47:18;;;;;;;6.20;2.50;;;8.10;94.00;;;;;;1910624;74;21114;-64
2021/04/16 05:49:45;;;;;;;5.00;2.65;;;8.10;93.70;;;;;;1913973;74;21087;-66
2021/04/16 05:52:13;;;;;;;5.17;2.80;;;8.20;93.40;;;;;;1927570;74;21562;-66
2021/04/16 05:54:41;;;;;;;5.35;2.60;;;8.30;93.90;;;;;;1924135;74;21096;-66
2021/04/16 05:57:08;;;;;;;6.10;2.50;;;8.30;94.00;;;;;;1922646;74;21044;-66
2021/04/16 05:59:36;;;;;;;8.33;2.75;;;8.30;93.90;;;;;;1931581;74;21095;-67
2021/04/16 06:02:04;;;;;;;5.42;3.22;;;8.40;94.00;;;;;;1920674;73;21608;-67
2021/04/16 06:04:32;;;;;;;6.50;2.87;;;8.30;93.70;;;;;;1913878;74;21080;-66
2021/04/16 06:07:00;;;;;;;4.53;2.92;;;8.30;94.10;;;;;;1914028;73;21123;-65
2021/04/16 06:09:27;;;;;;;7.47;2.60;;;8.30;93.90;;;;;;1919352;74;21014;-65
2021/04/16 06:11:55;;;;;;;10.95;3.12;;;8.20;94.10;;;;;;1914347;74;21104;-66
2021/04/16 06:14:22;;;;;;;9.60;3.05;;;8.30;94.00;;;;;;1914736;74;21177;-66
2021/04/16 06:16:52;;;;;;;8.58;3.37;;;8.30;93.80;;;;;;1917271;73;21177;-66
2021/04/16 06:19:19;;;;;;;5.90;2.90;;;8.30;94.30;;;;;;1916522;74;21709;-67
2021/04/16 06:21:46;;;;;;;3.80;2.87;;;8.30;93.90;;;;;;1914517;74;21143;-67
2021/04/16 06:24:14;;;;;;;4.10;2.83;;;8.30;94.40;;;;;;1917918;74;21182;-66
2021/04/16 06:26:41;;;;;;;5.35;2.87;;;8.40;94.60;;;;;;1920816;74;21067;-66
2021/04/16 06:29:09;;;;;;;4.87;2.60;;;8.40;94.20;;;;;;1922068;73;21560;-67
2021/04/16 06:31:37;;;;;;;6.50;2.58;;;8.50;94.30;;;;;;1914729;74;21216;-66
2021/04/16 06:34:04;;;;;;;4.65;2.95;;;8.60;94.40;;;;;;1921073;74;21092;-66
2021/04/16 06:36:32;;;;;;;6.97;2.90;;;8.60;94.10;;;;;;1920921;74;21149;-66
2021/04/16 06:39:00;;;;;;;5.85;2.67;;;8.70;93.70;;;;;;1918006;74;21545;-68
2021/04/16 06:41:30;;;;;;;6.10;3.05;;;8.70;94.10;;;;;;1920310;73;21131;-66
2021/04/16 06:44:06;;;;;;;4.62;2.80;;;8.80;94.30;;;;;;1918446;73;21569;-66
2021/04/16 06:46:45;;;;;;;4.45;2.70;;;8.80;94.50;;;;;;1916752;74;21265;-66
2021/04/16 06:49:25;;;;;;;5.62;3.00;;;8.90;94.20;;;;;;1921215;74;21143;-66
2021/04/16 06:52:25;;;;;;;6.60;2.83;;;8.90;94.30;;;;;;1910782;74;21115;-66
2021/04/16 06:55:12;;;;;;;4.12;2.95;;;8.90;94.20;;;;;;1913105;74;21173;-67
2021/04/16 06:57:57;;;;;;;6.30;3.22;;;8.90;94.80;;;;;;1913649;73;21256;-67
2021/04/16 07:00:40;;;;;;;7.08;3.47;;;8.90;94.50;;;;;;1915595;74;21080;-67
2021/04/16 07:03:19;;;;;;;7.08;2.77;;;9.00;94.20;;;;;;1916965;73;21184;-66
2021/04/16 07:05:50;;;;;;;5.85;2.92;;;9.10;94.70;;;;;;1921222;74;21193;-66
2021/04/16 07:08:26;;;;;;;5.90;2.92;;;9.10;94.10;;;;;;1919071;74;21809;-67
2021/04/16 07:10:57;;;;;;;3.62;2.75;;;9.20;93.80;;;;;;1915450;74;21166;-66
2021/04/16 07:13:38;;;;;;;4.28;2.75;;;9.30;94.30;;;;;;1913154;74;21060;-67
2021/04/16 07:16:07;;;;;;;4.90;2.70;;;9.30;94.20;;;;;;1918753;73;21167;-66
2021/04/16 07:18:38;;;;;;;5.03;2.70;;;9.40;94.10;;;;;;1917259;74;21049;-66
2021/04/16 07:21:07;;;;;;;4.58;2.65;;;9.50;94.30;;;;;;1916686;74;21057;-66
2021/04/16 07:23:38;;;;;;;6.28;2.83;;;9.60;94.30;;;;;;1918640;74;21514;-66
2021/04/16 07:26:08;;;;;;;6.08;2.98;;;9.80;94.20;;;;;;1901254;74;21139;-66
2021/04/16 07:28:52;;;;;;;8.20;3.10;;;9.80;94.10;;;;;;1909736;74;21182;-66
2021/04/16 07:31:29;;;;;;;4.10;2.72;;;9.90;94.40;;;;;;1917692;74;21084;-66
2021/04/16 07:33:59;;;;;;;7.92;3.02;;;9.90;94.20;;;;;;1915405;74;21651;-67
2021/04/16 07:36:41;;;;;;;7.30;2.83;;;10.00;94.10;;;;;;1915742;74;21092;-67
2021/04/16 07:39:18;;;;;;;7.87;3.33;;;10.00;94.50;;;;;;1911988;74;21103;-67
2021/04/16 07:41:48;;;;;;;10.25;3.60;;;10.10;94.10;;;;;;1915085;73;21068;-67
2021/04/16 07:44:18;;;;;;;4.70;2.90;;;10.20;94.50;;;;;;1908220;74;21160;-67
2021/04/16 07:46:52;;;;;;;8.00;2.70;;;10.30;94.40;;;;;;1909509;74;21253;-67
2021/04/16 07:49:24;;;;;;;6.67;2.70;;;10.30;95.20;;;;;;1912273;74;21177;-66
2021/04/16 07:51:56;;;;;;;5.33;2.90;;;10.40;94.50;;;;;;1914795;74;21111;-66
2021/04/16 07:54:27;;;;;;;6.92;3.10;;;10.60;94.00;;;;;;1914728;74;21020;-66
2021/04/16 07:57:15;;;;;;;7.50;3.00;;;10.70;94.10;;;;;;1918324;74;21033;-66
2021/04/16 07:59:58;;;;;;;4.87;2.70;;;10.70;94.80;;;;;;1912231;74;21474;-66
2021/04/16 08:02:32;;;;;;;4.97;2.50;;;10.70;94.90;;;;;;1915471;74;21099;-66
2021/04/16 08:05:00;;;;;;;5.83;3.08;;;10.80;94.60;;;;;;1927891;74;21177;-66
2021/04/16 08:07:35;;;;;;;6.92;2.83;;;10.90;94.40;;;;;;1915411;73;21091;-67
2021/04/16 08:10:05;;;;;;;8.03;3.10;;;11.00;94.40;;;;;;1915563;74;21111;-67
2021/04/16 08:12:33;;;;;;;5.67;2.65;;;11.10;93.60;;;;;;1912392;74;21186;-67
2021/04/16 08:15:24;;;;;;;5.75;2.70;;;11.20;94.20;;;;;;1918949;74;21092;-68
2021/04/16 08:17:51;;;;;;;6.62;3.17;;;11.20;94.40;;;;;;1915960;74;21692;-65
2021/04/16 08:20:22;;;;;;;5.10;2.87;;;11.20;93.90;;;;;;1920348;74;21119;-65
2021/04/16 08:22:50;;;;;;;7.10;3.05;;;11.30;93.90;;;;;;1922122;74;21033;-66
2021/04/16 08:25:21;;;;;;;5.67;2.80;;;11.40;94.00;;;;;;1914099;74;21131;-66
2021/04/16 08:28:03;;;;;;;4.25;2.70;;;11.40;94.30;;;;;;1913812;74;21127;-66
2021/04/16 08:30:39;;;;;;;4.80;3.10;;;11.50;94.10;;;;;;1917002;74;21149;-66
2021/04/16 08:33:16;;;;;;;5.92;3.25;;;11.60;93.10;;;;;;1915127;74;21107;-67
2021/04/16 08:36:06;;;;;;;5.17;2.58;;;11.70;93.40;;;;;;1889591;74;21103;-67
2021/04/16 08:38:42;;;;;;;7.15;2.98;;;11.70;93.70;;;;;;1922341;73;21127;-66
2021/04/16 08:41:12;;;;;;;6.00;2.92;;;11.70;94.30;;;;;;1905402;74;21107;-66
2021/04/16 08:43:43;;;;;;;5.97;2.67;;;11.80;93.80;;;;;;1918383;74;21148;-67
2021/04/16 08:46:25;;;;;;;8.38;3.30;;;11.90;92.90;;;;;;1921018;73;21516;-66
2021/04/16 08:48:55;;;;;;;;;;;12.00;93.20;;;;;;1923273;74;21040;-67
2021/04/16 08:51:26;;;;;;;7.42;2.90;;;12.00;93.20;;;;;;1919914;74;20205;-67
2021/04/16 08:54:02;;;;;;;8.88;3.05;;;12.00;93.00;;;;;;1916701;74;21124;-67
2021/04/16 08:56:35;;;;;;;10.72;3.27;;;12.00;92.40;;;;;;1918431;74;21626;-67
2021/04/16 08:59:11;;;;;;;8.98;2.95;;;12.10;93.00;;;;;;1920481;74;21443;-67
2021/04/16 09:01:42;;;;;;;8.85;3.17;;;12.20;93.10;;;;;;1926679;73;21382;-67
2021/04/16 09:04:16;;;;;;;8.08;3.83;;;12.30;94.10;;;;;;1916845;74;21185;-67
2021/04/16 09:06:47;;;;;;;7.90;3.30;;;12.40;95.00;;;;;;1921914;73;21147;-65
2021/04/16 09:09:17;;;;;;;6.05;3.02;;;12.50;92.90;;;;;;1923429;74;21140;-67
2021/04/16 09:11:48;;;;;;;6.37;3.27;;;12.40;91.90;;;;;;1916669;73;21057;-68
2021/04/16 09:14:28;;;;;;;8.58;3.52;;;12.60;92.50;;;;;;1915977;74;21166;-67
2021/04/16 09:16:57;;;;;;;7.42;3.20;;;12.50;92.90;;;;;;1913664;74;21521;-67
2021/04/16 09:19:28;;;;;;;7.22;3.40;;;12.60;92.70;;;;;;1919759;73;21087;-66
2021/04/16 09:22:09;;;;;;;7.22;3.67;;;12.80;93.60;;;;;;1911885;74;21112;-67
2021/04/16 09:24:49;;;;;;;8.63;3.35;;;12.90;92.70;;;;;;1917406;74;21169;-67
2021/04/16 09:27:23;;;;;;;6.65;3.15;;;12.90;92.90;;;;;;1911748;74;21084;-66
2021/04/16 09:29:51;;;;;;;6.08;3.00;;;12.90;92.60;;;;;;1915521;73;21170;-66
2021/04/16 09:32:41;;;;;;;9.73;3.60;;;13.00;91.40;;;;;;1914454;74;21131;-66
2021/04/16 09:35:11;;;;;;;6.20;3.02;;;13.00;91.30;;;;;;1912373;74;21229;-66
2021/04/16 09:37:41;;;;;;;5.25;3.10;;;12.90;91.30;;;;;;1910760;74;21095;-66
2021/04/16 09:40:25;;;;;;;9.08;3.58;;;13.00;91.90;;;;;;1920006;74;21048;-66
2021/04/16 09:43:13;;;;;;;5.78;3.00;;;13.10;91.40;;;;;;1918802;74;21440;-66
2021/04/16 09:45:46;;;;;;;6.55;3.17;;;13.10;92.30;;;;;;1908003;74;21112;-67
2021/04/16 09:48:23;;;;;;;10.65;3.30;;;13.30;91.90;;;;;;1911574;73;21087;-66
2021/04/16 09:51:00;;;;;;;6.70;3.20;;;13.40;91.90;;;;;;1917289;74;21082;-66
2021/04/16 09:53:34;;;;;;;6.75;2.95;;;13.60;91.40;;;;;;1918116;74;21106;-66
2021/04/16 09:56:05;;;;;;;6.97;2.72;;;13.60;90.00;;;;;;1918544;74;21049;-66
2021/04/16 09:58:38;;;;;;;8.00;3.30;;;13.80;86.90;;;;;;1920677;74;21068;-65
2021/04/16 10:01:06;;;;;;;;;;;13.80;90.80;;;;;;1919674;74;21029;-66
2021/04/16 10:03:45;;;;;;;9.30;4.03;;;13.90;89.10;;;;;;1920736;74;20113;-66
2021/04/16 10:06:24;;;;;;;6.70;3.62;;;14.00;90.20;;;;;;1927385;74;21068;-66
2021/04/16 10:09:14;;;;;;;7.20;3.58;;;14.00;89.60;;;;;;1918206;74;21012;-66
2021/04/16 10:11:47;;;;;;;6.55;3.67;;;14.00;89.00;;;;;;1917777;74;21108;-65
2021/04/16 10:14:20;;;;;;;9.05;3.70;;;13.90;88.40;;;;;;1907225;74;21040;-66
2021/04/16 10:16:48;;;;;;;;;;;14.00;87.90;;;;;;1919707;73;21149;-66
2021/04/16 10:19:19;;;;;;;8.58;3.47;;;14.00;90.70;;;;;;1907644;74;20286;-66
2021/04/16 10:21:47;;;;;;;8.23;3.83;;;14.10;90.50;;;;;;1907974;74;21049;-66
2021/04/16 10:44:41;;;;;;;4.87;2.37;;;14.60;84.60;;;;;;1900965;74;21240;-66
2021/04/16 11:45:14;;;;;;;6.20;2.60;;;15.70;68.90;;;;;;1954042;71;21250;-67
2021/04/16 12:39:06;;;;;;;4.55;1.65;;;17.70;58.50;;;;;;1949535;73;21004;-65
2021/04/16 12:41:38;;;;;;;3.25;1.30;;;17.70;55.80;;;;;;1938794;72;21000;-66
2021/04/16 12:44:07;;;;;;;3.80;1.57;;;18.00;56.90;;;;;;1945539;73;21000;-64
2021/04/16 12:46:39;;;;;;;3.47;1.40;;;18.20;53.90;;;;;;1941293;73;21939;-65
2021/04/16 12:49:08;;;;;;;;;;;18.30;55.40;;;;;;1945721;73;21031;-65
2021/04/16 12:51:35;;;;;;;4.53;2.15;;;18.40;53.60;;;;;;1945458;73;20119;-65
2021/04/16 12:54:02;;;;;;;3.10;1.60;;;18.70;53.90;;;;;;1948592;71;21047;-65
2021/04/16 12:56:36;;;;;;;5.62;1.80;;;18.80;54.60;;;;;;1940863;73;21181;-64
2021/04/16 12:59:09;;;;;;;4.45;1.37;;;18.80;51.90;;;;;;1945190;73;21149;-65
2021/04/16 13:01:37;;;;;;;2.60;1.50;;;18.80;53.20;;;;;;1942522;71;21164;-65
2021/04/16 13:04:05;;;;;;;4.70;1.37;;;18.80;51.90;;;;;;1941264;72;21184;-65
2021/04/16 13:06:37;;;;;;;5.42;1.65;;;18.70;51.50;;;;;;1941161;72;21114;-65
2021/04/16 13:09:05;;;;;;;;;;;18.70;52.80;;;;;;1946639;73;21150;-64
2021/04/16 13:11:33;;;;;;;3.50;1.50;;;18.90;54.30;;;;;;1946989;72;20183;-65
2021/04/16 13:14:00;;;;;;;5.35;1.90;;;19.00;52.80;;;;;;1937500;73;21095;-65
2021/04/16 13:16:28;;;;;;;5.05;1.60;;;19.40;53.60;;;;;;1944384;73;21176;-65
2021/04/16 13:18:58;;;;;;;4.60;1.67;;;19.60;53.30;;;;;;1940600;73;21087;-65
2021/04/16 13:21:31;;;;;;;4.20;1.60;;;19.70;54.60;;;;;;1940627;72;21149;-65
2021/04/16 13:23:59;;;;;;;3.40;1.50;;;19.80;52.10;;;;;;1940099;73;21126;-65
2021/04/16 13:26:28;;;;;;;2.33;1.30;;;20.00;51.40;;;;;;1945349;73;21554;-65
2021/04/16 13:28:56;;;;;;;2.52;1.70;;;20.10;47.90;;;;;;1939052;73;21168;-65
2021/04/16 13:31:28;;;;;;;4.97;2.65;;;20.30;49.50;;;;;;1937095;73;21344;-64
2021/04/16 13:33:55;;;;;;;2.90;1.80;;;20.40;50.70;;;;;;1931069;73;21142;-65
2021/04/16 13:36:26;;;;;;;4.62;1.47;;;20.50;48.30;;;;;;1942981;72;21162;-65
2021/04/16 13:38:54;;;;;;;2.25;1.60;;;20.60;48.30;;;;;;1941337;71;21155;-64
2021/04/16 13:41:22;;;;;;;2.98;1.67;;;20.50;47.30;;;;;;1942378;73;21039;-64
2021/04/16 13:43:51;;;;;;;2.50;1.15;;;20.30;47.60;;;;;;1944336;71;21099;-64
2021/04/16 13:46:24;;;;;;;2.90;1.25;;;20.30;48.40;;;;;;1940427;72;21114;-65
2021/04/16 13:48:53;;;;;;;1.67;1.05;;;20.50;49.30;;;;;;1942846;72;21150;-65
2021/04/16 13:51:22;;;;;;;3.47;1.50;;;20.50;45.40;;;;;;1943287;73;21153;-65
2021/04/16 13:53:51;;;;;;;3.12;1.30;;;20.50;46.70;;;;;;1944455;73;21117;-65
2021/04/16 13:56:18;;;;;;;3.02;1.15;;;20.60;46.00;;;;;;1948849;73;21056;-65
2021/04/16 13:58:46;;;;;;;2.98;1.60;;;20.60;45.50;;;;;;1944128;73;21650;-65
2021/04/16 14:01:14;;;;;;;3.67;1.22;;;20.60;46.30;;;;;;1946823;73;21159;-65
2021/04/16 14:03:44;;;;;;;3.80;1.20;;;20.40;45.60;;;;;;1906714;75;22263;-65
2021/04/16 14:06:18;;;;;;;2.42;1.10;;;20.30;46.80;;;;;;1949893;73;21620;-65
2021/04/16 14:09:06;;;;;;;3.27;1.50;;;20.30;46.90;;;;;;1945734;71;21085;-65
2021/04/16 14:11:34;;;;;;;1.70;1.40;;;20.30;47.10;;;;;;1937920;73;21023;-64
2021/04/16 14:14:04;;;;;;;2.62;1.30;;;20.30;45.70;;;;;;1947432;73;21577;-65
2021/04/16 14:16:34;;;;;;;4.75;1.60;;;20.20;46.30;;;;;;1943162;73;21056;-64
2021/04/16 14:19:04;;;;;;;2.22;1.30;;;20.10;46.40;;;;;;1946491;73;21046;-67
2021/04/16 14:21:35;;;;;;;1.37;1.07;;;20.30;45.50;;;;;;1943290;73;21497;-67
2021/04/16 14:24:03;;;;;;;1.87;1.20;;;20.50;44.00;;;;;;1948061;73;21180;-67
2021/04/16 14:26:30;;;;;;;1.87;0.93;;;20.80;45.00;;;;;;1944326;72;21095;-66
2021/04/16 14:28:58;;;;;;;2.33;1.30;;;20.90;44.60;;;;;;1947479;72;21435;-67
2021/04/16 14:31:25;;;;;;;2.50;1.40;;;20.90;44.70;;;;;;1942144;72;21015;-66
2021/04/16 14:33:53;;;;;;;2.70;1.32;;;20.70;43.60;;;;;;1946217;72;21470;-67
2021/04/16 14:36:21;;;;;;;2.65;1.20;;;20.50;45.10;;;;;;1953492;72;21138;-67
2021/04/16 14:38:48;;;;;;;3.17;1.15;;;20.20;45.00;;;;;;1950843;73;21692;-67
2021/04/16 14:41:22;;;;;;;5.03;1.40;;;20.00;44.00;;;;;;1945918;73;21501;-67
2021/04/16 14:43:49;;;;;;;1.57;1.25;;;19.90;45.30;;;;;;1944656;71;21704;-67
2021/04/16 14:46:16;;;;;;;3.52;1.20;;;19.90;44.80;;;;;;1940788;73;21216;-67
2021/04/16 14:48:44;;;;;;;2.92;1.32;;;20.00;45.10;;;;;;1941923;73;21083;-67
2021/04/16 14:51:12;;;;;;;5.10;1.30;;;20.10;44.40;;;;;;1940181;73;21070;-67
2021/04/16 14:53:48;;;;;;;2.47;1.62;;;20.30;44.90;;;;;;1949739;73;21115;-67
2021/04/16 14:56:17;;;;;;;3.02;1.52;;;20.20;45.70;;;;;;1944190;73;21186;-68
2021/04/16 14:58:51;;;;;;;10.68;7.70;;;20.00;46.20;;;;;;1945755;72;21118;-68
2021/04/16 15:01:20;;;;;;;4.58;1.40;;;20.00;46.10;;;;;;1937760;72;21591;-67
2021/04/16 15:03:47;;;;;;;4.53;1.75;;;19.90;47.00;;;;;;1943215;73;21079;-67
2021/04/16 15:06:24;;;;;;;3.98;1.45;;;19.80;46.70;;;;;;1942310;72;21127;-67
2021/04/16 15:08:54;;;;;;;5.90;1.70;;;19.80;46.20;;;;;;1940224;73;21087;-67
2021/04/16 15:11:25;;;;;;;3.10;1.27;;;19.60;46.70;;;;;;1949537;72;21153;-67
2021/04/16 15:13:53;;;;;;;3.50;1.57;;;19.70;48.50;;;;;;1944451;71;21048;-67
2021/04/16 15:16:21;;;;;;;4.12;1.25;;;19.60;45.90;;;;;;1951420;71;21173;-67
2021/04/16 15:18:49;;;;;;;4.78;1.27;;;19.60;46.00;;;;;;1947777;72;21009;-67